Time;durP1;ratioP1;P1;durP2;ratioP2;P2;SDS_P1;SDS_P2;PMS_P1;PMS_P2;Temp;Humidity;BMP_temperature;BMP_pressure;BME280_temperature;BME280_humidity;BME280_pressure;Samples;Min_cycle;Max_cycle;Signal;HPM_P1;HPM_P2
2022/06/01 06:59:29;;;;;;;;;5.00;4.50;;;;;19.35;49.07;101318.47;5027399;28;45585;-78
2022/06/01 07:01:54;;;;;;;;;5.00;3.25;;;;;19.49;49.03;101328.09;5034993;28;45505;-81
2022/06/01 07:04:20;;;;;;;;;3.75;3.00;;;;;19.70;48.37;101316.53;5032574;28;50402;-80
2022/06/01 07:06:45;;;;;;;;;6.00;4.75;;;;;19.94;48.22;101316.28;5036418;28;45458;-79
2022/06/01 07:09:10;;;;;;;;;5.50;4.25;;;;;20.22;47.84;101318.47;5041006;28;48900;-78
2022/06/01 07:11:37;;;;;;;;;3.00;3.00;;;;;20.51;46.97;101317.78;5051407;28;45465;-79
2022/06/01 07:14:04;;;;;;;;;5.50;3.75;;;;;20.80;46.87;101317.06;5038328;28;45423;-79
2022/06/01 07:16:32;;;;;;;;;5.00;4.00;;;;;21.06;46.57;101320.16;5042580;28;45415;-79
2022/06/01 07:18:59;;;;;;;;;4.25;4.00;;;;;21.36;45.89;101328.31;5038347;28;46131;-80
2022/06/01 07:21:25;;;;;;;;;4.00;4.00;;;;;21.58;45.33;101323.66;5046759;28;45410;-81
2022/06/01 07:23:51;;;;;;;;;3.67;3.33;;;;;21.85;44.96;101335.63;5039908;28;45646;-79
2022/06/01 07:26:20;;;;;;;;;4.00;4.00;;;;;22.08;44.57;101329.91;5046827;28;45649;-82
2022/06/01 07:28:45;;;;;;;;;2.00;2.00;;;;;22.29;43.36;101329.75;5032337;28;48367;-82
2022/06/01 07:31:11;;;;;;;;;4.67;4.00;;;;;22.49;43.06;101329.69;5039759;28;45571;-79
2022/06/01 07:33:37;;;;;;;;;4.00;4.00;;;;;22.64;42.35;101330.94;5043024;28;45515;-75
2022/06/01 07:36:06;;;;;;;;;4.33;4.00;;;;;22.77;42.19;101327.88;5040001;28;47911;-75
2022/06/01 07:44:23;;;;;;;;;2.33;2.33;;;;;23.25;41.55;101329.63;5042537;28;45600;-75
2022/06/01 07:46:49;;;;;;;;;5.33;5.00;;;;;23.39;41.11;101328.28;5047665;28;45733;-75
2022/06/01 07:49:16;;;;;;;;;3.33;3.33;;;;;23.50;41.45;101329.94;5042642;28;45424;-75
2022/06/01 07:51:42;;;;;;;;;3.00;3.00;;;;;23.58;41.01;101332.69;5035460;28;45570;-78
2022/06/01 07:54:08;;;;;;;;;3.33;3.33;;;;;23.65;40.77;101331.09;5048574;28;45477;-77
2022/06/01 07:56:34;;;;;;;;;5.33;5.33;;;;;23.76;40.46;101335.44;5045028;28;45340;-77
2022/06/01 07:59:00;;;;;;;;;3.00;3.00;;;;;23.85;40.14;101319.22;5047964;28;46527;-77
2022/06/01 08:01:25;;;;;;;;;4.33;3.33;;;;;23.91;40.27;101322.16;5042781;28;45605;-80
2022/06/01 08:03:56;;;;;;;;;3.00;2.67;;;;;23.99;39.71;101321.34;5046940;28;45567;-80
2022/06/01 08:06:23;;;;;;;;;3.00;3.00;;;;;24.08;39.62;101319.56;5047641;28;45285;-80
2022/06/01 08:08:48;;;;;;;;;5.00;4.00;;;;;24.16;39.56;101316.09;5042561;28;46720;-80
2022/06/01 08:11:14;;;;;;;;;2.00;2.00;;;;;24.24;39.51;101320.72;5034516;28;50146;-80
2022/06/01 08:13:40;;;;;;;;;5.00;3.00;;;;;24.31;39.61;101317.22;5033395;28;45505;-77
2022/06/01 08:16:05;;;;;;;;;4.00;4.00;;;;;24.39;39.07;101323.72;5028369;28;45548;-76
2022/06/01 08:18:31;;;;;;;;;5.00;3.00;;;;;24.43;39.23;101322.34;5026602;28;45503;-79
2022/06/01 08:20:56;;;;;;;;;3.00;3.00;;;;;24.48;38.81;101320.88;5028673;28;45773;-78
2022/06/01 08:23:25;;;;;;;;;3.00;3.00;;;;;24.52;38.92;101315.13;5016154;28;45821;-77
2022/06/01 08:25:51;;;;;;;;;2.67;2.67;;;;;24.52;38.96;101315.13;5029852;28;45456;-78
2022/06/01 08:28:17;;;;;;;;;4.50;2.50;;;;;24.52;39.14;101320.56;5024670;28;46129;-77
2022/06/01 08:30:43;;;;;;;;;3.00;3.00;;;;;24.52;39.25;101317.84;5031939;28;45514;-78
2022/06/01 08:33:09;;;;;;;;;5.00;5.00;;;;;24.54;39.39;101323.94;5027425;28;45542;-76
2022/06/01 08:35:40;;;;;;;;;8.33;3.67;;;;;24.52;39.36;101318.69;5020309;28;45416;-76
2022/06/01 08:38:06;;;;;;;;;4.67;3.33;;;;;24.57;39.36;101326.34;5020879;28;46387;-76
2022/06/01 08:40:36;;;;;;;;;3.67;3.67;;;;;24.59;39.72;101324.31;5021063;28;45411;-76
2022/06/01 08:43:06;;;;;;;;;2.00;2.00;;;;;24.62;39.61;101318.56;5019926;28;45539;-75
2022/06/01 08:45:32;;;;;;;;;3.00;3.00;;;;;24.67;39.71;101327.06;5033028;28;45429;-75
2022/06/01 08:47:58;;;;;;;;;2.00;2.00;;;;;24.69;40.06;101324.19;5015041;28;46306;-75
2022/06/01 08:50:29;;;;;;;;;3.00;3.00;;;;;24.72;39.77;101322.00;5026741;28;45891;-75
2022/06/01 08:52:59;;;;;;;;;3.00;3.00;;;;;24.73;39.75;101331.84;5021224;28;45728;-75
2022/06/01 08:55:27;;;;;;;;;3.00;3.00;;;;;24.77;40.08;101329.66;5023342;28;45718;-75
2022/06/01 08:58:06;;;;;;;;;2.33;2.33;;;;;24.79;39.82;101330.34;5024293;28;45359;-75
2022/06/01 09:00:39;;;;;;;;;3.00;3.00;;;;;24.81;39.70;101328.31;5018760;28;45642;-75
2022/06/01 09:03:20;;;;;;;;;3.00;3.00;;;;;24.82;39.73;101331.91;5029326;28;45381;-78
2022/06/01 09:06:15;;;;;;;;;4.33;3.67;;;;;24.85;39.75;101334.31;5019714;28;45704;-78
2022/06/01 09:09:03;;;;;;;;;3.00;3.00;;;;;24.86;39.93;101331.41;5026180;28;45547;-76
2022/06/01 09:11:34;;;;;;;;;3.00;2.00;;;;;24.89;39.91;101335.66;5032498;28;45412;-78
2022/06/01 09:14:14;;;;;;;;;3.00;3.00;;;;;24.91;40.25;101322.81;5023038;28;45538;-76
2022/06/01 09:16:49;;;;;;;;;3.00;3.00;;;;;24.96;40.21;101338.59;5021898;28;47064;-77
2022/06/01 09:19:28;;;;;;;;;2.00;2.00;;;;;24.99;40.26;101332.84;5017392;28;46531;-76
2022/06/01 09:24:54;;;;;;;;;2.00;2.00;;;;;25.04;40.12;101326.91;5020595;28;45505;-75
2022/06/01 09:27:38;;;;;;;;;3.00;2.00;;;;;25.07;40.21;101326.56;5022116;28;45984;-76
2022/06/01 09:30:22;;;;;;;;;3.33;3.00;;;;;25.09;39.95;101319.97;5043831;28;47432;-74
2022/06/01 09:33:14;;;;;;;;;2.67;2.67;;;;;25.12;40.08;101329.66;5032868;28;45390;-75
2022/06/01 09:36:01;;;;;;;;;2.00;2.00;;;;;25.14;40.13;101330.34;5025917;28;45808;-75
2022/06/01 09:39:08;;;;;;;;;1.33;1.33;;;;;25.18;40.45;101333.56;5028978;28;45421;-78
2022/06/01 09:41:36;;;;;;;;;3.67;2.00;;;;;25.19;40.43;101338.84;5021922;28;45678;-75
2022/06/01 09:44:04;;;;;;;;;3.00;3.00;;;;;25.20;40.43;101324.25;5018634;28;45356;-75
2022/06/01 09:46:36;;;;;;;;;2.00;2.00;;;;;25.22;40.27;101327.63;5022798;28;45549;-77
2022/06/01 09:49:11;;;;;;;;;2.00;2.00;;;;;25.24;40.22;101319.31;5019320;28;45478;-74
2022/06/01 09:51:41;;;;;;;;;3.00;3.00;;;;;25.24;40.36;101317.47;5019038;28;46174;-75
2022/06/01 09:54:21;;;;;;;;;2.00;2.00;;;;;25.27;40.26;101319.84;5025246;28;45556;-76
2022/06/01 09:56:48;;;;;;;;;1.33;1.33;;;;;25.29;40.52;101316.97;5030602;28;45221;-76
2022/06/01 10:08:11;;;;;;;;;2.00;2.00;;;;;25.37;40.09;101313.41;5020261;28;45562;-78
2022/06/01 10:10:37;;;;;;;;;3.00;3.00;;;;;25.39;40.07;101320.38;5018063;28;45779;-77
2022/06/01 10:13:04;;;;;;;;;3.00;3.00;;;;;25.38;39.98;101315.13;5032233;28;45619;-77
2022/06/01 10:15:37;;;;;;;;;2.00;2.00;;;;;25.41;39.87;101319.38;5020809;28;45832;-77
2022/06/01 10:18:07;;;;;;;;;2.00;2.00;;;;;25.42;40.11;101316.47;5021494;28;45396;-80
2022/06/01 10:20:40;;;;;;;;;3.00;3.00;;;;;25.43;40.08;101315.47;5011810;28;45677;-77
2022/06/01 10:23:14;;;;;;;;;2.00;2.00;;;;;25.45;39.87;101318.00;5009336;28;45740;-76
2022/06/01 10:25:42;;;;;;;;;3.00;3.00;;;;;25.45;39.88;101310.69;5012743;28;47080;-77
2022/06/01 10:28:15;;;;;;;;;6.33;3.67;;;;;25.46;40.15;101311.56;5012316;28;45483;-79
2022/06/01 10:30:49;;;;;;;;;3.00;3.00;;;;;25.51;37.61;101311.91;5011241;28;46170;-79
2022/06/01 10:33:23;;;;;;;;;3.00;3.00;;;;;25.56;37.44;101309.56;5009750;28;45697;-78
2022/06/01 10:35:56;;;;;;;;;3.00;3.00;;;;;25.61;37.21;101317.19;5021609;28;45538;-79
2022/06/01 10:38:32;;;;;;;;;2.00;2.00;;;;;25.68;36.86;101309.22;5016707;28;45764;-80
2022/06/01 10:41:12;;;;;;;;;2.67;2.67;;;;;25.70;36.74;101307.19;5015960;28;45761;-81
2022/06/01 10:44:07;;;;;;;;;3.00;2.00;;;;;25.67;36.32;101304.81;5015946;28;46753;-81
2022/06/01 10:46:47;;;;;;;;;3.00;3.00;;;;;25.68;36.41;101301.94;5011791;28;47005;-80
2022/06/01 10:49:32;;;;;;;;;3.33;3.00;;;;;25.70;36.58;101288.16;5013166;28;52832;-79
2022/06/01 10:52:20;;;;;;;;;3.00;3.00;;;;;25.68;36.05;101291.06;5016720;28;45555;-79
2022/06/01 10:54:58;;;;;;;;;3.00;3.00;;;;;25.70;36.38;101285.44;5011726;28;45528;-79
2022/06/01 10:57:23;;;;;;;;;4.33;3.00;;;;;25.71;36.05;101287.97;5023094;28;45577;-79
2022/06/01 10:59:50;;;;;;;;;2.33;2.33;;;;;25.73;36.09;101288.66;5022311;28;49590;-80
2022/06/01 11:02:30;;;;;;;;;5.00;3.67;;;;;25.75;36.18;101286.63;5025081;28;45778;-79
2022/06/01 11:05:41;;;;;;;;;4.00;2.33;;;;;25.75;36.18;101277.63;5020873;28;46712;-79
2022/06/01 11:08:40;;;;;;;;;4.00;4.00;;;;;25.74;36.14;101275.91;5004325;28;47240;-79
2022/06/01 11:11:29;;;;;;;;;2.00;2.00;;;;;25.73;36.16;101276.94;5008756;28;52242;-79
2022/06/01 11:14:10;;;;;;;;;4.00;4.00;;;;;25.71;36.20;101271.66;5006618;28;58666;-78
2022/06/01 11:16:54;;;;;;;;;3.00;3.00;;;;;25.70;36.14;101263.72;5009498;28;45416;-78
2022/06/01 11:19:36;;;;;;;;;3.00;3.00;;;;;25.70;36.01;101269.13;5005973;28;45488;-78
2022/06/01 11:22:32;;;;;;;;;3.00;3.00;;;;;25.69;36.05;101267.41;5004723;28;46018;-78
2022/06/01 11:25:19;;;;;;;;;7.00;4.00;;;;;25.68;36.21;101266.59;5000520;28;46076;-78
2022/06/01 11:28:08;;;;;;;;;5.00;3.33;;;;;25.67;36.11;101264.91;5000559;28;46976;-77
2022/06/01 11:31:08;;;;;;;;;3.00;3.00;;;;;25.61;35.98;101271.00;5005513;28;45829;-75
2022/06/01 11:33:48;;;;;;;;;3.00;3.00;;;;;25.51;36.44;101263.00;5006479;28;45550;-75
2022/06/01 11:36:30;;;;;;;;;3.67;3.00;;;;;25.47;36.52;101272.50;5006605;28;46419;-75
2022/06/01 11:39:14;;;;;;;;;3.00;3.00;;;;;25.44;37.12;101265.53;5003999;28;45363;-75
2022/06/01 11:41:50;;;;;;;;;3.67;3.00;;;;;25.44;36.94;101261.94;5008104;28;45425;-76
2022/06/01 11:44:23;;;;;;;;;4.00;4.00;;;;;25.42;37.21;101261.28;5007698;28;45352;-75
2022/06/01 11:47:03;;;;;;;;;3.00;3.00;;;;;25.43;37.20;101258.41;5016472;28;45471;-75
2022/06/01 11:49:40;;;;;;;;;3.67;3.67;;;;;25.45;37.35;101272.66;5016435;28;46524;-77
2022/06/01 11:52:41;;;;;;;;;3.00;3.00;;;;;25.46;37.17;101268.09;5014878;28;60268;-76
2022/06/01 11:55:22;;;;;;;;;2.00;2.00;;;;;25.48;37.75;101263.31;5018303;28;45384;-75
2022/06/01 11:57:54;;;;;;;;;2.00;2.00;;;;;25.50;37.54;101266.72;5015435;28;45973;-75
2022/06/01 12:00:40;;;;;;;;;5.67;5.00;;;;;25.56;37.63;101267.94;5015732;28;45536;-75
2022/06/01 12:03:17;;;;;;;;;3.00;3.00;;;;;25.58;37.76;101261.31;5014861;28;53052;-76
2022/06/01 12:06:40;;;;;;;;;2.33;2.33;;;;;25.63;37.66;101258.94;5020172;28;45423;-76
2022/06/01 12:09:16;;;;;;;;;4.33;4.00;;;;;25.65;37.81;101261.47;5023510;28;45617;-76
2022/06/01 12:11:47;;;;;;;;;3.33;3.33;;;;;25.65;37.62;101262.34;5024710;28;45562;-75
2022/06/01 12:14:29;;;;;;;;;5.00;3.33;;;;;25.65;38.07;101259.63;5026774;28;45802;-76
2022/06/01 12:17:17;;;;;;;;;3.00;3.00;;;;;25.68;37.71;101254.84;5023172;28;45630;-75
2022/06/01 12:19:45;;;;;;;;;3.00;3.00;;;;;25.69;37.82;101251.09;5023699;28;45447;-75
2022/06/01 12:28:51;;;;;;;;;3.00;2.67;;;;;25.77;38.18;101251.97;4960946;28;47104;-76
2022/06/01 12:31:37;;;;;;;;;3.00;3.00;;;;;25.76;38.23;101242.09;4963256;28;46297;-75
2022/06/01 12:34:16;;;;;;;;;4.00;4.00;;;;;25.77;37.86;101243.81;4967897;28;45986;-76
2022/06/01 12:36:50;;;;;;;;;3.00;3.00;;;;;25.77;38.39;101243.81;4963760;28;45855;-76
2022/06/01 12:39:32;;;;;;;;;2.00;2.00;;;;;25.82;38.19;101250.63;4966178;28;45727;-76
2022/06/01 12:42:38;;;;;;;;;2.33;2.33;;;;;25.83;38.27;101253.13;4960042;28;45453;-80
2022/06/01 12:45:11;;;;;;;;;3.67;3.67;;;;;25.85;38.33;101245.66;4958696;28;46052;-77
2022/06/01 12:47:50;;;;;;;;;2.67;2.67;;;;;25.90;38.16;101246.00;4958971;28;45704;-81
2022/06/01 12:50:19;;;;;;;;;3.00;3.00;;;;;25.95;38.30;101241.91;4959141;28;45624;-87
2022/06/01 12:52:46;;;;;;;;;3.00;3.00;;;;;25.99;36.81;101246.81;4963885;28;45549;-79
2022/06/01 12:55:20;;;;;;;;;2.33;2.33;;;;;26.07;36.45;101253.28;4956375;28;47513;-83
2022/06/01 12:57:56;;;;;;;;;4.00;3.00;;;;;26.13;36.41;101244.41;4944450;28;46169;-81
2022/06/01 13:00:29;;;;;;;;;4.33;3.00;;;;;26.15;36.24;101239.63;5014569;28;45563;-80
2022/06/01 13:02:55;;;;;;;;;2.00;2.00;;;;;26.16;36.25;101244.91;5014126;28;45497;-77
2022/06/01 13:05:36;;;;;;;;;3.00;3.00;;;;;26.15;35.98;101242.34;5015562;28;46045;-76
2022/06/01 13:08:04;;;;;;;;;3.00;2.33;;;;;26.14;36.43;101238.81;5019917;28;45531;-77
2022/06/01 13:10:35;;;;;;;;;4.67;4.67;;;;;26.15;35.93;101242.34;5027806;28;45948;-76
2022/06/01 13:13:05;;;;;;;;;2.67;2.67;;;;;26.16;36.09;101241.34;5017983;28;46998;-76
2022/06/01 13:15:30;;;;;;;;;4.00;4.00;;;;;26.18;35.85;101244.75;5016352;28;46850;-75
2022/06/01 13:17:59;;;;;;;;;2.00;2.00;;;;;26.17;35.54;101234.88;5014229;28;47183;-76
2022/06/01 13:21:14;;;;;;;;;3.00;3.00;;;;;26.18;35.77;101242.03;5020195;28;46025;-75
2022/06/01 13:23:58;;;;;;;;;3.33;3.33;;;;;26.15;35.85;101245.94;5026152;28;45814;-78
2022/06/01 13:26:29;;;;;;;;;2.33;2.33;;;;;26.14;35.90;101238.81;5027571;28;46111;-77
2022/06/01 13:29:09;;;;;;;;;3.00;3.00;;;;;26.13;35.67;101239.84;5028146;28;45508;-77
2022/06/01 13:31:36;;;;;;;;;3.00;3.00;;;;;26.13;35.71;101239.84;5030408;28;45466;-77
2022/06/01 13:34:05;;;;;;;;;4.67;3.33;;;;;26.13;35.74;101238.97;5025641;28;45586;-77
2022/06/01 13:36:37;;;;;;;;;3.00;3.00;;;;;26.14;35.73;101240.66;5025410;28;50563;-76
2022/06/01 13:39:07;;;;;;;;;4.00;3.00;;;;;26.12;35.61;101240.84;5029207;28;45476;-76
2022/06/01 13:41:35;;;;;;;;;3.00;3.00;;;;;26.13;35.88;101233.53;5029342;28;45520;-77
2022/06/01 13:44:09;;;;;;;;;3.00;3.00;;;;;26.12;36.14;101231.84;5025448;28;45513;-78
2022/06/01 13:46:42;;;;;;;;;3.00;3.00;;;;;26.08;36.53;101228.63;5030282;28;46147;-79
2022/06/01 13:49:12;;;;;;;;;4.00;4.00;;;;;26.10;36.75;101231.16;5022108;28;45760;-78
2022/06/01 13:51:42;;;;;;;;;6.00;4.00;;;;;26.11;36.49;101230.16;5028654;28;45719;-77
2022/06/01 13:54:27;;;;;;;;;3.00;3.00;;;;;26.09;36.60;101233.03;5026341;28;45583;-77
2022/06/01 13:57:16;;;;;;;;;2.00;2.00;;;;;26.07;36.96;101232.34;5026504;28;45667;-77
2022/06/01 14:00:04;;;;;;;;;4.67;3.00;;;;;26.08;36.61;101227.78;5026809;28;45638;-78
2022/06/01 14:03:03;;;;;;;;;2.00;2.00;;;;;26.09;36.83;101232.19;5025243;28;45416;-78
2022/06/01 14:05:41;;;;;;;;;2.00;2.00;;;;;26.09;36.85;101238.50;5015447;28;45578;-78
2022/06/01 14:08:10;;;;;;;;;5.00;4.00;;;;;26.10;37.07;101239.31;5022515;28;46390;-75
2022/06/01 14:10:49;;;;;;;;;4.00;3.00;;;;;26.09;37.46;101238.50;5021593;28;45628;-77
2022/06/01 14:13:17;;;;;;;;;3.33;2.00;;;;;26.10;37.37;101240.19;5025368;28;45594;-77
2022/06/01 14:15:42;;;;;;;;;3.00;3.00;;;;;26.11;37.19;101251.91;5026166;28;45546;-77
2022/06/01 14:18:12;;;;;;;;;3.00;3.00;;;;;26.10;37.35;101239.31;5014287;28;45606;-78
2022/06/01 14:20:37;;;;;;;;;2.00;2.00;;;;;26.11;37.38;101243.75;5023283;28;45435;-77
2022/06/01 14:23:03;;;;;;;;;3.00;3.00;;;;;26.08;37.45;101253.13;5020812;28;52211;-79
2022/06/01 14:28:28;;;;;;;;;3.00;3.00;;;;;26.15;37.27;101245.94;5021449;28;46198;-77
2022/06/01 14:30:54;;;;;;;;;3.00;3.00;;;;;26.14;36.84;101243.38;5024404;28;45767;-77
2022/06/01 14:33:19;;;;;;;;;2.00;1.33;;;;;26.12;37.35;101243.56;5027771;28;45528;-77
2022/06/01 14:35:45;;;;;;;;;2.67;2.67;;;;;26.11;37.35;101243.75;5029313;28;45599;-78
2022/06/01 14:38:11;;;;;;;;;7.00;4.00;;;;;26.10;37.83;101244.75;5027176;28;47947;-79
2022/06/01 14:40:37;;;;;;;;;3.00;3.00;;;;;26.10;37.64;101256.50;5028892;28;45415;-79
2022/06/01 14:43:07;;;;;;;;;2.00;2.00;;;;;26.11;37.76;101235.59;5026455;28;45489;-79
2022/06/01 14:45:33;;;;;;;;;2.33;2.33;;;;;26.11;37.51;101241.88;5024589;28;45465;-78
2022/06/01 14:47:58;;;;;;;;;5.33;3.33;;;;;26.12;37.54;101246.28;5027154;28;47490;-78
2022/06/01 14:50:24;;;;;;;;;3.00;2.00;;;;;26.15;37.56;101254.09;5028134;28;45392;-79
2022/06/01 14:52:49;;;;;;;;;2.00;2.00;;;;;26.17;38.01;101253.94;5025800;28;45497;-80
2022/06/01 14:55:16;;;;;;;;;4.00;3.00;;;;;26.19;37.93;101260.03;5029889;28;46139;-79
2022/06/01 14:57:41;;;;;;;;;3.00;3.00;;;;;26.22;38.37;101251.53;5026841;28;46062;-79
2022/06/01 15:00:07;;;;;;;;;4.00;4.00;;;;;26.24;38.14;101254.91;5022371;28;48316;-78
2022/06/01 15:02:34;;;;;;;;;2.67;2.67;;;;;26.25;37.86;101261.25;5022377;28;45802;-78
2022/06/01 15:05:02;;;;;;;;;5.33;4.00;;;;;26.29;38.21;101254.44;5022960;28;45364;-76
2022/06/01 15:07:28;;;;;;;;;2.00;2.00;;;;;26.30;38.40;101264.28;5018704;28;45912;-81
2022/06/01 15:09:53;;;;;;;;;3.00;3.00;;;;;26.31;38.42;101258.69;5021573;28;45566;-79
2022/06/01 15:12:19;;;;;;;;;2.67;2.00;;;;;26.34;38.77;101265.66;5018398;28;45443;-78
2022/06/01 15:14:44;;;;;;;;;2.00;0.33;;;;;26.36;38.69;101268.19;5009966;28;47324;-79
2022/06/01 15:17:20;;;;;;;;;4.33;3.67;;;;;26.37;38.79;101265.31;5008915;28;48649;-77
2022/06/01 15:19:46;;;;;;;;;1.67;1.67;;;;;26.39;38.33;101262.38;5010964;28;45584;-78
2022/06/01 15:22:13;;;;;;;;;3.00;3.00;;;;;26.39;38.82;101255.09;5014707;28;46753;-81
2022/06/01 15:24:38;;;;;;;;;3.00;3.00;;;;;26.41;38.48;101258.47;5011900;28;45717;-77
2022/06/01 15:27:04;;;;;;;;;2.67;2.67;;;;;26.42;38.58;101259.31;5011284;28;45474;-79
2022/06/01 15:40:28;;;;;;;;;4.67;3.00;;;;;26.50;39.12;101255.72;5010918;28;45764;-77
2022/06/01 15:42:53;;;;;;;;;3.00;3.00;;;;;26.50;38.84;101261.16;5011267;28;45720;-77
2022/06/01 15:45:19;;;;;;;;;2.33;2.33;;;;;26.50;39.61;101269.31;5010266;28;46196;-79
2022/06/01 15:47:51;;;;;;;;;2.00;2.00;;;;;26.48;39.26;101260.50;5012645;28;46158;-85
2022/06/01 15:50:18;;;;;;;;;2.67;2.33;;;;;26.52;38.86;101262.69;5013231;28;45515;-86
2022/06/01 15:52:43;;;;;;;;;6.00;3.33;;;;;26.55;37.14;101248.72;5012348;28;45927;-86
2022/06/01 15:55:09;;;;;;;;;4.00;3.33;;;;;26.56;36.52;101250.41;5014499;28;45492;-86
2022/06/01 15:57:35;;;;;;;;;6.33;5.00;;;;;26.57;36.22;101252.09;5012053;28;46130;-86
2022/06/01 16:00:01;;;;;;;;;4.67;3.00;;;;;26.56;36.37;101252.28;5011764;28;45534;-85
2022/06/01 16:02:28;;;;;;;;;3.33;3.33;;;;;26.54;36.06;101248.91;5014674;28;47359;-87
2022/06/01 16:04:54;;;;;;;;;3.00;3.00;;;;;26.53;36.09;101244.50;5014257;28;45485;-86
2022/06/01 16:07:21;;;;;;;;;3.33;3.00;;;;;26.50;35.85;101251.13;5024787;28;45667;-85
2022/06/01 16:09:47;;;;;;;;;3.33;3.33;;;;;26.48;36.35;101246.91;5029127;28;45373;-84
2022/06/01 16:12:13;;;;;;;;;2.00;2.00;;;;;26.46;36.00;101249.78;5032771;28;45419;-86
2022/06/01 16:14:38;;;;;;;;;6.00;4.00;;;;;26.44;35.96;101247.25;5023959;28;45968;-80
2022/06/01 16:17:05;;;;;;;;;3.00;3.00;;;;;26.41;35.74;101250.31;5027024;28;52148;-81
2022/06/01 16:19:32;;;;;;;;;2.50;2.50;;;;;26.39;36.06;101243.34;5025299;28;45628;-80
2022/06/01 16:21:57;;;;;;;;;2.00;2.00;;;;;26.39;35.85;101233.31;5013269;28;45586;-81
2022/06/01 16:24:22;;;;;;;;;2.67;2.67;;;;;26.37;35.67;101231.78;5013241;28;45728;-81
2022/06/01 16:26:48;;;;;;;;;3.00;3.00;;;;;26.36;35.93;101233.66;5014658;28;52165;-81
2022/06/01 16:29:14;;;;;;;;;4.00;3.00;;;;;26.32;35.95;101218.69;5012847;28;45611;-81
2022/06/01 16:31:42;;;;;;;;;3.00;3.00;;;;;26.31;35.79;101222.44;5011372;28;45603;-81
2022/06/01 16:34:11;;;;;;;;;5.00;3.33;;;;;26.30;35.37;101215.31;5017991;28;47521;-80
2022/06/01 16:36:37;;;;;;;;;4.33;4.33;;;;;26.29;35.22;101221.78;5013665;28;45514;-81
2022/06/01 16:39:23;;;;;;;;;4.33;3.00;;;;;26.28;35.33;101217.38;5012375;28;47570;-82
2022/06/01 16:41:49;;;;;;;;;3.33;3.33;;;;;26.26;35.84;101220.28;5017724;28;47004;-81
2022/06/01 16:44:20;;;;;;;;;1.33;1.33;;;;;26.25;35.59;101224.03;5013346;28;45835;-80
2022/06/01 16:46:45;;;;;;;;;3.33;3.33;;;;;26.23;35.68;101214.31;5012187;28;46484;-80
2022/06/01 16:49:11;;;;;;;;;3.00;3.00;;;;;26.23;35.57;101219.75;5019447;28;46068;-81
2022/06/01 16:51:37;;;;;;;;;1.67;1.67;;;;;26.21;35.40;101222.63;5011953;28;46963;-81
2022/06/01 16:54:02;;;;;;;;;2.33;2.33;;;;;26.18;35.63;101222.97;5013777;28;46783;-81
2022/06/01 16:56:29;;;;;;;;;4.00;3.00;;;;;26.20;35.64;101230.97;5013372;28;46128;-80
2022/06/01 16:58:54;;;;;;;;;4.00;2.33;;;;;26.20;35.73;101225.53;5023450;28;45913;-81
2022/06/01 17:01:24;;;;;;;;;3.00;3.00;;;;;26.19;35.73;101230.09;5031045;28;45973;-81
2022/06/01 17:03:50;;;;;;;;;3.33;3.33;;;;;26.20;35.75;101230.97;5024412;28;45536;-80
2022/06/01 17:06:16;;;;;;;;;4.00;2.00;;;;;26.17;35.57;101226.72;5029114;28;47322;-80
2022/06/01 17:08:42;;;;;;;;;2.00;2.00;;;;;26.17;34.93;101232.16;5022785;28;45656;-80
2022/06/01 17:11:07;;;;;;;;;2.00;2.00;;;;;26.15;35.15;101232.34;5026137;28;45494;-80
2022/06/01 17:13:33;;;;;;;;;3.33;3.33;;;;;26.15;34.96;101234.19;5025276;28;45835;-80
2022/06/01 17:15:58;;;;;;;;;2.67;2.67;;;;;26.17;34.75;101243.06;5019442;28;45559;-79
2022/06/01 17:18:23;;;;;;;;;3.00;3.00;;;;;26.16;35.33;101241.34;5022631;28;45490;-77
2022/06/01 17:20:52;;;;;;;;;3.00;3.00;;;;;26.13;35.14;101249.84;5034593;28;45761;-79
2022/06/01 17:23:18;;;;;;;;;2.00;2.00;;;;;26.12;35.33;101246.28;5021445;28;45333;-80
2022/06/01 17:25:44;;;;;;;;;2.00;2.00;;;;;26.11;35.06;101250.03;5024142;28;46303;-85
2022/06/01 17:28:11;;;;;;;;;2.00;2.00;;;;;26.10;35.06;101248.34;5029189;28;45522;-84
2022/06/01 17:30:38;;;;;;;;;4.00;3.00;;;;;26.10;35.15;101248.34;5028047;28;45872;-84
2022/06/01 17:33:08;;;;;;;;;1.00;1.00;;;;;26.09;35.75;101245.78;5043265;28;45859;-81
2022/06/01 17:35:36;;;;;;;;;1.00;1.00;;;;;26.10;36.32;101250.19;5020329;28;46005;-83
2022/06/01 17:38:03;;;;;;;;;2.00;2.00;;;;;26.07;36.28;101259.56;5020989;28;45719;-82
2022/06/01 17:40:30;;;;;;;;;3.00;3.00;;;;;26.09;36.13;101262.97;5023323;28;45584;-82
2022/06/01 17:42:56;;;;;;;;;1.00;1.00;;;;;26.08;36.26;101261.28;5021680;28;45505;-82
2022/06/01 17:45:24;;;;;;;;;1.00;1.00;;;;;26.07;36.68;101256.00;5024008;28;45421;-81
2022/06/01 17:47:51;;;;;;;;;2.33;1.00;;;;;26.03;36.50;101263.63;5020242;28;45756;-82
2022/06/01 17:50:17;;;;;;;;;1.00;1.00;;;;;25.98;36.86;101268.75;5025638;28;45578;-81
2022/06/01 17:52:44;;;;;;;;;4.33;1.33;;;;;25.97;37.17;101265.19;5018857;28;46138;-81
2022/06/01 17:55:09;;;;;;;;;1.00;0.00;;;;;25.96;37.07;101270.81;5027630;28;46349;-81
2022/06/01 17:57:35;;;;;;;;;3.00;3.00;;;;;25.96;36.98;101268.09;5021705;28;45504;-80
2022/06/01 18:00:05;;;;;;;;;5.67;4.33;;;;;25.97;37.94;101270.63;5034187;28;45440;-80
2022/06/01 18:02:30;;;;;;;;;7.67;7.67;;;;;25.97;38.32;101278.78;5027104;28;45404;-81
2022/06/01 18:04:56;;;;;;;;;6.67;6.67;;;;;26.01;37.91;101284.72;5017421;28;47293;-80
2022/06/01 18:07:22;;;;;;;;;16.00;14.00;;;;;26.01;37.56;101282.88;5007168;28;56214;-80
2022/06/01 18:09:47;;;;;;;;;16.33;15.67;;;;;26.00;37.24;101285.75;5017487;28;45499;-80
2022/06/01 18:12:13;;;;;;;;;32.00;30.50;;;;;25.98;37.44;101280.50;5011103;28;46775;-80
2022/06/01 18:14:40;;;;;;;;;38.75;33.25;;;;;25.98;37.62;101283.22;5009737;28;47220;-80
2022/06/01 18:17:07;;;;;;;;;55.25;44.25;;;;;25.97;37.89;101286.97;5017604;28;45807;-78
2022/06/01 18:19:33;;;;;;;;;49.75;41.25;;;;;25.93;37.00;101285.59;5020420;28;45675;-79
2022/06/01 18:21:59;;;;;;;;;56.50;46.50;;;;;25.94;37.24;101291.91;5025272;28;45483;-81
2022/06/01 18:24:25;;;;;;;;;62.50;47.00;;;;;25.90;37.08;101286.78;5025988;28;45970;-80
2022/06/01 18:26:52;;;;;;;;;67.75;53.00;;;;;25.86;36.73;101284.56;5028708;28;45446;-81
2022/06/01 18:29:20;;;;;;;;;71.75;56.75;;;;;25.86;36.76;101288.16;5016078;28;45685;-80
2022/06/01 18:31:46;;;;;;;;;77.50;61.75;;;;;25.85;36.35;101289.19;5015348;28;45509;-81
2022/06/01 18:34:12;;;;;;;;;76.50;63.25;;;;;25.85;36.13;101289.19;5015123;28;45605;-84
2022/06/01 18:36:37;;;;;;;;;76.50;66.25;;;;;25.86;36.17;101298.16;5013233;28;45529;-83
2022/06/01 18:39:04;;;;;;;;;73.50;62.00;;;;;25.85;35.99;101286.47;5013755;28;45850;-82
2022/06/01 18:41:30;;;;;;;;;77.00;65.50;;;;;25.85;35.89;101289.19;5014700;28;45432;-82
2022/06/01 18:43:58;;;;;;;;;74.75;63.50;;;;;25.87;36.26;101300.72;5012304;28;46231;-82
2022/06/01 18:46:24;;;;;;;;;82.00;74.75;;;;;25.85;35.69;101302.78;5015313;28;45856;-81
2022/06/01 18:48:49;;;;;;;;;78.00;68.75;;;;;25.84;36.17;101303.81;5012153;28;47054;-81
2022/06/01 18:51:21;;;;;;;;;79.50;74.00;;;;;25.85;36.08;101308.22;5012368;28;45560;-82
2022/06/01 18:53:47;;;;;;;;;86.25;79.00;;;;;25.84;36.13;101313.81;5013281;28;45539;-82
2022/06/01 18:56:12;;;;;;;;;77.75;68.50;;;;;25.85;35.57;101310.06;5013195;28;45646;-81
2022/06/01 18:58:38;;;;;;;;;79.00;67.00;;;;;25.85;35.55;101319.09;5020078;28;45377;-86
2022/06/01 19:03:47;;;;;;;;;77.00;68.75;;;;;25.82;35.17;101310.44;5025107;28;45803;-81
2022/06/01 19:06:17;;;;;;;;;78.25;71.50;;;;;25.79;35.85;101306.19;5029286;28;45376;-85
2022/06/01 19:08:44;;;;;;;;;75.75;67.00;;;;;25.75;35.92;101300.22;5029816;28;45484;-82
2022/06/01 19:11:12;;;;;;;;;75.00;65.25;;;;;25.74;35.63;101306.69;5014696;28;45537;-82
2022/06/01 19:13:38;;;;;;;;;74.25;63.75;;;;;25.76;35.21;101301.91;5010784;28;46123;-81
2022/06/01 19:16:22;;;;;;;;;75.00;62.50;;;;;25.78;35.29;101301.75;5011682;28;45736;-81
2022/06/01 19:18:47;;;;;;;;;70.50;55.50;;;;;25.78;34.84;101308.03;5010054;28;45468;-81
2022/06/01 19:21:12;;;;;;;;;74.25;62.00;;;;;25.81;34.44;101314.13;5015239;28;45492;-83
2022/06/01 19:23:38;;;;;;;;;72.25;60.25;;;;;25.83;35.03;101323.00;5013212;28;47086;-81